createdAt,value
2023-02-17T00:01:16.210Z,1.23
2023-02-17T00:03:52.202Z,1.24
2023-02-17T00:06:27.612Z,1.27
2023-02-17T00:09:01.954Z,1.13
2023-02-17T00:11:35.728Z,1.11
2023-02-17T00:14:12.918Z,1.14
2023-02-17T00:16:47.120Z,1.20
2023-02-17T00:19:25.298Z,1.17
2023-02-17T00:22:00.910Z,1.15
2023-02-17T00:24:35.218Z,1.22
2023-02-17T00:27:08.477Z,1.23
2023-02-17T00:29:41.608Z,1.09
2023-02-17T00:32:15.035Z,1.00
2023-02-17T00:34:49.678Z,1.05
2023-02-17T00:37:23.088Z,0.98
2023-02-17T00:39:57.035Z,1.06
2023-02-17T00:42:30.461Z,1.09
2023-02-17T00:45:03.773Z,0.82
2023-02-17T00:47:37.126Z,0.89
2023-02-17T00:50:12.163Z,0.70
2023-02-17T00:52:45.272Z,0.67
2023-02-17T00:55:18.839Z,0.76
2023-02-17T00:57:52.426Z,0.83
2023-02-17T01:00:25.939Z,0.98
2023-02-17T01:02:59.066Z,0.87
2023-02-17T01:05:34.220Z,0.69
2023-02-17T01:08:07.338Z,0.52
2023-02-17T01:10:41.840Z,0.49
2023-02-17T01:13:16.817Z,0.67
2023-02-17T01:15:53.035Z,0.39
2023-02-17T01:18:26.826Z,0.30
2023-02-17T01:21:01.826Z,0.52
2023-02-17T01:23:35.505Z,0.62
2023-02-17T01:26:08.729Z,0.76
2023-02-17T01:28:42.400Z,0.68
2023-02-17T01:31:16.704Z,0.65
2023-02-17T01:33:50.419Z,0.47
2023-02-17T01:36:25.602Z,0.41
2023-02-17T01:38:58.907Z,0.41
2023-02-17T01:41:32.222Z,0.43
2023-02-17T01:44:15.400Z,0.41
2023-02-17T01:46:51.793Z,0.46
2023-02-17T01:49:31.511Z,0.46
2023-02-17T01:52:11.482Z,0.39
2023-02-17T01:54:48.372Z,0.05
2023-02-17T01:57:25.526Z,0.57
2023-02-17T01:59:59.512Z,0.20
2023-02-17T02:02:33.691Z,0.12
2023-02-17T02:05:07.366Z,0.27
2023-02-17T02:07:45.022Z,0.15
2023-02-17T02:10:19.721Z,0.12
2023-02-17T02:12:54.378Z,0.08
2023-02-17T02:15:31.035Z,0.26
2023-02-17T02:18:17.442Z,0.13
2023-02-17T02:21:24.773Z,0.03
2023-02-17T02:24:14.486Z,0.04
2023-02-17T02:27:11.823Z,-0.22
2023-02-17T02:30:30.304Z,-0.20
2023-02-17T02:33:13.069Z,0.05
2023-02-17T02:35:55.323Z,0.09
2023-02-17T02:38:32.622Z,-0.14
2023-02-17T02:41:12.588Z,-0.06
2023-02-17T02:43:45.948Z,-0.12
2023-02-17T02:46:19.346Z,-0.13
2023-02-17T02:48:54.842Z,-0.06
2023-02-17T02:51:37.851Z,-0.24
2023-02-17T02:54:33.378Z,-0.31
2023-02-17T02:57:26.095Z,-0.13
2023-02-17T03:00:14.561Z,-0.10
2023-02-17T03:02:52.688Z,-0.07
2023-02-17T03:05:39.208Z,-0.31
2023-02-17T03:08:16.938Z,-0.11
2023-02-17T03:10:53.884Z,-0.11
2023-02-17T03:13:28.217Z,-0.05
2023-02-17T03:16:01.934Z,-0.06
2023-02-17T03:18:36.005Z,-0.19
2023-02-17T03:21:17.230Z,-0.26
2023-02-17T03:23:50.643Z,-0.11
2023-02-17T03:26:24.102Z,-0.05
2023-02-17T03:28:57.319Z,-0.30
2023-02-17T03:31:31.182Z,-0.41
2023-02-17T03:34:05.239Z,-0.23
2023-02-17T03:36:40.341Z,-0.38
2023-02-17T03:39:13.656Z,-0.45
2023-02-17T03:41:48.228Z,-0.26
2023-02-17T03:44:21.653Z,-0.26
2023-02-17T03:46:54.874Z,-0.34
2023-02-17T03:49:28.206Z,-0.31
2023-02-17T03:52:03.015Z,-0.25
2023-02-17T03:54:36.970Z,-0.42
2023-02-17T03:57:10.546Z,-0.56
2023-02-17T03:59:43.818Z,-0.42
2023-02-17T04:02:17.188Z,-0.45
2023-02-17T04:04:50.389Z,-0.40
2023-02-17T04:07:24.974Z,-0.39
2023-02-17T04:09:58.462Z,-0.43
2023-02-17T04:12:33.491Z,-0.63
2023-02-17T04:15:08.833Z,-0.51
2023-02-17T04:17:42.605Z,-0.73
2023-02-17T04:20:15.986Z,-0.69
2023-02-17T04:22:50.518Z,-0.71
2023-02-17T04:25:24.356Z,-0.70
2023-02-17T04:27:57.891Z,-0.66
2023-02-17T04:30:31.551Z,-0.74
2023-02-17T04:33:06.499Z,-0.77
2023-02-17T04:35:39.986Z,-0.67
2023-02-17T04:38:14.613Z,-0.83
2023-02-17T04:40:48.326Z,-0.88
2023-02-17T04:43:22.111Z,-0.88
2023-02-17T04:45:55.903Z,-0.81
2023-02-17T04:48:29.384Z,-0.74
2023-02-17T04:51:02.498Z,-0.61
2023-02-17T04:53:37.504Z,-0.77
2023-02-17T04:56:11.659Z,-0.86
2023-02-17T04:58:45.244Z,-0.93
2023-02-17T05:01:18.762Z,-0.87
2023-02-17T05:03:52.097Z,-0.89
2023-02-17T05:06:25.280Z,-0.97
2023-02-17T05:09:00.165Z,-0.89
2023-02-17T05:11:33.656Z,-0.86
2023-02-17T05:14:07.886Z,-1.11
2023-02-17T05:16:42.374Z,-1.04
2023-02-17T05:19:15.934Z,-1.12
2023-02-17T05:21:49.132Z,-1.14
2023-02-17T05:24:23.844Z,-0.99
2023-02-17T05:26:57.183Z,-1.47
2023-02-17T05:29:30.616Z,-1.00
2023-02-17T05:32:04.251Z,-0.83
2023-02-17T05:34:37.787Z,-1.13
2023-02-17T05:37:11.297Z,-1.19
2023-02-17T05:39:46.224Z,-0.92
2023-02-17T05:42:19.714Z,-0.86
2023-02-17T05:44:53.099Z,-0.91
2023-02-17T05:47:27.688Z,-0.76
2023-02-17T05:50:01.275Z,-0.71
2023-02-17T05:52:34.425Z,-0.59
2023-02-17T05:55:09.808Z,-0.53
2023-02-17T05:57:43.160Z,-0.36
2023-02-17T06:00:17.720Z,-0.38
2023-02-17T06:02:51.413Z,-0.35
2023-02-17T06:05:25.174Z,-0.26
2023-02-17T06:07:58.684Z,-0.14
2023-02-17T06:10:33.503Z,-0.04
2023-02-17T06:13:06.725Z,0.20
2023-02-17T06:15:39.931Z,0.28
2023-02-17T06:18:13.535Z,0.31
2023-02-17T06:20:46.807Z,0.36
2023-02-17T06:23:20.369Z,0.56
2023-02-17T06:25:55.413Z,0.69
2023-02-17T06:28:29.020Z,0.46
2023-02-17T06:31:02.654Z,0.90
2023-02-17T06:33:36.359Z,0.95
2023-02-17T06:36:10.364Z,1.08
2023-02-17T06:38:44.205Z,0.77
2023-02-17T06:41:18.927Z,1.21
2023-02-17T06:43:52.195Z,1.31
2023-02-17T06:46:25.634Z,1.35
2023-02-17T06:49:00.131Z,1.45
2023-02-17T06:51:33.661Z,1.54
2023-02-17T06:54:07.224Z,1.61
2023-02-17T06:56:41.984Z,1.55
2023-02-17T06:59:15.502Z,1.39
2023-02-17T07:01:49.897Z,1.87
2023-02-17T07:04:23.218Z,1.92
2023-02-17T07:06:56.609Z,2.01
2023-02-17T07:09:30.835Z,2.15
2023-02-17T07:12:06.792Z,2.23
2023-02-17T07:14:40.804Z,2.28
2023-02-17T07:17:14.264Z,2.31
2023-02-17T07:19:47.869Z,2.39
2023-02-17T07:22:21.636Z,2.50
2023-02-17T07:24:55.029Z,2.57
2023-02-17T07:27:29.860Z,2.65
2023-02-17T07:30:03.566Z,2.59
2023-02-17T07:32:36.982Z,2.92
2023-02-17T07:35:10.650Z,3.02
2023-02-17T07:37:43.981Z,3.11
2023-02-17T07:40:17.592Z,3.23
2023-02-17T07:42:52.870Z,3.38
2023-02-17T07:45:26.103Z,3.54
2023-02-17T07:47:59.482Z,3.65
2023-02-17T07:50:33.120Z,3.76
2023-02-17T07:53:06.394Z,3.84
2023-02-17T07:55:39.716Z,3.90
2023-02-17T07:58:14.428Z,3.91
2023-02-17T08:00:47.865Z,4.25
2023-02-17T08:03:21.407Z,4.36
2023-02-17T08:05:54.837Z,4.58
2023-02-17T08:08:45.697Z,4.70
2023-02-17T08:11:36.768Z,4.77
2023-02-17T08:14:13.184Z,4.87
2023-02-17T08:16:47.216Z,5.12
2023-02-17T08:19:20.790Z,5.17
2023-02-17T08:21:54.569Z,5.21
2023-02-17T08:24:28.267Z,5.26
2023-02-17T08:27:01.731Z,5.28
2023-02-17T08:29:36.520Z,5.41
2023-02-17T08:32:10.120Z,5.52
2023-02-17T08:34:43.566Z,5.54
2023-02-17T08:37:16.945Z,5.62
2023-02-17T08:39:50.309Z,5.81
2023-02-17T08:42:24.162Z,5.93
2023-02-17T08:44:59.122Z,5.94
2023-02-17T08:47:32.537Z,6.04
2023-02-17T08:50:09.384Z,6.14
2023-02-17T08:52:42.962Z,6.24
2023-02-17T08:55:18.471Z,6.37
2023-02-17T08:57:52.061Z,6.50
2023-02-17T09:00:26.869Z,6.63
2023-02-17T09:03:00.655Z,6.76
2023-02-17T09:05:35.260Z,6.85
2023-02-17T09:08:09.168Z,6.95
2023-02-17T09:10:47.748Z,7.05
2023-02-17T09:13:22.099Z,7.13
2023-02-17T09:15:56.904Z,7.13
2023-02-17T09:18:30.802Z,7.19
2023-02-17T09:21:07.599Z,7.28
2023-02-17T09:23:41.909Z,7.30
2023-02-17T09:26:17.352Z,7.52
2023-02-17T09:28:51.173Z,7.57
2023-02-17T09:31:30.941Z,7.64
2023-02-17T09:34:05.685Z,7.66
2023-02-17T09:36:41.206Z,7.75
2023-02-17T09:39:15.008Z,7.74
2023-02-17T09:41:52.141Z,7.80
2023-02-17T09:44:27.685Z,7.64
2023-02-17T09:47:08.641Z,8.07
2023-02-17T09:49:46.762Z,7.90
2023-02-17T09:52:28.201Z,7.95
2023-02-17T09:55:06.624Z,7.89
2023-02-17T09:57:50.418Z,8.10
2023-02-17T10:00:27.160Z,8.13
2023-02-17T10:03:07.634Z,8.38
2023-02-17T10:05:46.906Z,8.58
2023-02-17T10:08:26.877Z,8.31
2023-02-17T10:11:05.758Z,8.92
2023-02-17T10:13:42.244Z,9.06
2023-02-17T10:16:23.047Z,8.98
2023-02-17T10:19:03.469Z,9.62
2023-02-17T10:21:41.017Z,9.78
2023-02-17T10:24:14.668Z,9.82
2023-02-17T10:26:58.657Z,9.91
2023-02-17T10:29:40.392Z,10.05
2023-02-17T10:32:23.073Z,10.21
2023-02-17T10:35:14.575Z,10.37
2023-02-17T10:37:49.819Z,10.88
2023-02-17T10:40:25.520Z,11.04
2023-02-17T10:43:02.284Z,11.14
2023-02-17T10:45:39.337Z,11.22
2023-02-17T10:48:15.605Z,11.38
2023-02-17T10:50:51.332Z,11.52
2023-02-17T10:53:29.771Z,11.61
2023-02-17T10:56:09.371Z,11.78
2023-02-17T10:58:51.491Z,12.23
2023-02-17T11:01:24.945Z,12.11
2023-02-17T11:04:03.632Z,11.86
2023-02-17T11:06:44.415Z,12.14
2023-02-17T11:09:21.865Z,11.99
2023-02-17T11:12:01.185Z,12.20
2023-02-17T11:14:38.001Z,12.30
2023-02-17T11:17:17.922Z,12.05
2023-02-17T11:19:59.807Z,12.40
2023-02-17T11:22:38.760Z,12.18
2023-02-17T11:25:23.452Z,12.62
2023-02-17T11:27:58.641Z,12.58
2023-02-17T11:30:33.608Z,12.66
2023-02-17T11:33:14.623Z,12.74
2023-02-17T11:35:52.139Z,12.74
2023-02-17T11:38:28.600Z,12.25
2023-02-17T11:41:04.730Z,12.41
2023-02-17T11:43:39.322Z,12.56
2023-02-17T11:46:22.616Z,12.61
2023-02-17T11:49:08.042Z,12.68
2023-02-17T11:51:55.004Z,12.52
2023-02-17T11:54:50.034Z,12.85
2023-02-17T11:57:37.749Z,13.17
2023-02-17T12:00:19.255Z,13.30
2023-02-17T12:03:11.088Z,13.09
2023-02-17T12:05:57.313Z,13.39
2023-02-17T12:08:39.443Z,12.91
2023-02-17T12:11:21.604Z,13.16
2023-02-17T12:14:10.835Z,13.35
2023-02-17T12:16:52.796Z,13.29
2023-02-17T12:19:47.258Z,13.09
2023-02-17T12:22:31.941Z,13.04
2023-02-17T12:25:24.117Z,13.06
2023-02-17T12:28:11.659Z,12.98
2023-02-17T12:30:59.415Z,13.25
2023-02-17T12:33:47.880Z,13.27
2023-02-17T12:36:22.225Z,13.04
2023-02-17T12:39:00.064Z,12.99
2023-02-17T12:41:37.536Z,13.09
2023-02-17T12:44:16.957Z,13.45
2023-02-17T12:46:53.978Z,13.68
2023-02-17T12:49:35.766Z,13.67
2023-02-17T12:52:15.546Z,13.58
2023-02-17T12:54:53.831Z,13.65
2023-02-17T12:57:45.818Z,13.57
2023-02-17T13:00:23.814Z,13.60
2023-02-17T13:02:59.791Z,13.15
2023-02-17T13:05:38.892Z,13.04
2023-02-17T13:08:17.480Z,13.37
2023-02-17T13:11:02.011Z,13.04
2023-02-17T13:13:36.774Z,13.03
2023-02-17T13:16:14.591Z,13.01
2023-02-17T13:18:50.744Z,12.76
2023-02-17T13:21:33.123Z,13.35
2023-02-17T13:24:14.054Z,13.68
2023-02-17T13:26:47.608Z,13.37
2023-02-17T13:29:34.441Z,13.72
2023-02-17T13:32:13.515Z,13.91
2023-02-17T13:34:47.558Z,14.04
2023-02-17T13:37:28.314Z,13.84
2023-02-17T13:40:02.444Z,13.54
2023-02-17T13:42:39.664Z,13.36
2023-02-17T13:45:19.017Z,13.60
2023-02-17T13:47:55.894Z,13.59
2023-02-17T13:50:33.010Z,13.61
2023-02-17T13:53:22.865Z,13.43
2023-02-17T13:55:59.987Z,13.41
2023-02-17T13:58:37.309Z,13.54
2023-02-17T14:01:18.891Z,13.24
2023-02-17T14:03:56.216Z,13.00
2023-02-17T14:06:33.666Z,12.79
2023-02-17T14:09:14.928Z,12.65
2023-02-17T14:11:53.187Z,12.88
2023-02-17T14:14:31.128Z,13.09
2023-02-17T14:17:07.458Z,13.28
2023-02-17T14:19:47.318Z,13.79
2023-02-17T14:22:28.943Z,13.84
2023-02-17T14:25:05.214Z,13.77
2023-02-17T14:27:45.834Z,13.75
2023-02-17T14:30:29.994Z,13.86
2023-02-17T14:33:06.554Z,13.25
2023-02-17T14:35:52.029Z,12.97
2023-02-17T14:38:27.697Z,13.31
2023-02-17T14:41:01.389Z,13.45
2023-02-17T14:43:34.658Z,13.43
2023-02-17T14:46:08.190Z,13.53
2023-02-17T14:48:42.065Z,13.43
2023-02-17T14:51:19.783Z,13.48
2023-02-17T14:53:53.749Z,13.44
2023-02-17T14:56:31.107Z,13.05
2023-02-17T14:59:05.064Z,13.17
2023-02-17T15:01:38.424Z,12.91
2023-02-17T15:04:12.046Z,13.13
2023-02-17T15:06:49.434Z,12.84
2023-02-17T15:09:29.522Z,12.62
2023-02-17T15:12:06.904Z,12.45
2023-02-17T15:14:41.116Z,12.48
2023-02-17T15:17:15.229Z,12.87
2023-02-17T15:19:49.383Z,12.68
2023-02-17T15:22:24.532Z,12.37
2023-02-17T15:24:57.859Z,12.32
2023-02-17T15:27:31.377Z,12.25
2023-02-17T15:30:05.344Z,12.06
2023-02-17T15:32:39.055Z,11.87
2023-02-17T15:35:18.617Z,11.74
2023-02-17T15:37:53.510Z,11.50
2023-02-17T15:40:28.759Z,11.23
2023-02-17T15:43:03.496Z,11.19
2023-02-17T15:45:36.790Z,11.17
2023-02-17T15:48:14.088Z,11.15
2023-02-17T15:50:47.454Z,10.88
2023-02-17T15:53:22.830Z,10.98
2023-02-17T15:55:56.459Z,10.89
2023-02-17T15:58:31.540Z,10.88
2023-02-17T16:01:05.046Z,10.95
2023-02-17T16:03:39.396Z,10.74
2023-02-17T16:06:12.625Z,10.52
2023-02-17T16:08:47.640Z,10.50
2023-02-17T16:11:23.612Z,10.51
2023-02-17T16:13:57.741Z,10.50
2023-02-17T16:16:33.454Z,10.49
2023-02-17T16:19:06.960Z,10.45
2023-02-17T16:21:40.049Z,10.39
2023-02-17T16:24:14.930Z,10.31
2023-02-17T16:26:48.913Z,10.29
2023-02-17T16:29:23.100Z,10.25
2023-02-17T16:31:56.246Z,10.18
2023-02-17T16:34:32.370Z,10.16
2023-02-17T16:37:13.649Z,10.07
2023-02-17T16:39:48.649Z,10.10
2023-02-17T16:42:21.843Z,10.07
2023-02-17T16:44:55.053Z,10.01
2023-02-17T16:47:29.872Z,9.93
2023-02-17T16:50:03.943Z,9.93
2023-02-17T16:52:37.449Z,9.98
2023-02-17T16:55:18.017Z,9.88
2023-02-17T16:57:52.202Z,9.76
2023-02-17T17:00:29.739Z,9.71
2023-02-17T17:03:03.140Z,9.75
2023-02-17T17:05:37.116Z,9.55
2023-02-17T17:08:12.759Z,9.52
2023-02-17T17:10:49.439Z,9.46
2023-02-17T17:13:23.500Z,9.34
2023-02-17T17:15:57.179Z,9.26
2023-02-17T17:18:30.939Z,9.23
2023-02-17T17:21:04.636Z,9.14
2023-02-17T17:23:38.053Z,8.94
2023-02-17T17:26:21.362Z,8.94
2023-02-17T17:28:55.762Z,8.86
2023-02-17T17:31:30.174Z,8.83
2023-02-17T17:34:03.861Z,8.74
2023-02-17T17:36:41.523Z,8.67
2023-02-17T17:39:17.406Z,8.61
2023-02-17T17:41:53.452Z,8.53
2023-02-17T17:44:28.158Z,8.48
2023-02-17T17:47:01.633Z,8.45
2023-02-17T17:49:34.783Z,8.07
2023-02-17T17:52:07.969Z,8.33
2023-02-17T17:54:41.548Z,8.29
2023-02-17T17:57:16.094Z,8.25
2023-02-17T17:59:49.778Z,8.17
2023-02-17T18:02:23.119Z,8.15
2023-02-17T18:04:56.401Z,8.08
2023-02-17T18:07:29.934Z,8.02
2023-02-17T18:10:04.725Z,7.85
2023-02-17T18:12:41.914Z,7.90
2023-02-17T18:15:16.759Z,7.87
2023-02-17T18:17:50.817Z,7.81
2023-02-17T18:20:24.318Z,7.75
2023-02-17T18:22:57.504Z,7.69
2023-02-17T18:25:31.156Z,7.53
2023-02-17T18:28:05.892Z,7.57
2023-02-17T18:30:39.247Z,7.53
2023-02-17T18:33:14.536Z,7.54
2023-02-17T18:35:48.013Z,7.52
2023-02-17T18:38:21.581Z,7.47
2023-02-17T18:40:54.853Z,7.49
2023-02-17T18:43:29.516Z,7.36
2023-02-17T18:46:09.736Z,7.41
2023-02-17T18:48:43.621Z,7.35
2023-02-17T18:51:23.138Z,7.34
2023-02-17T18:53:58.597Z,7.31
2023-02-17T18:56:33.971Z,7.21
2023-02-17T18:59:08.849Z,7.12
2023-02-17T19:01:43.469Z,7.06
2023-02-17T19:04:16.750Z,6.92
2023-02-17T19:06:50.088Z,6.78
2023-02-17T19:09:23.849Z,6.90
2023-02-17T19:11:57.979Z,6.86
2023-02-17T19:14:34.168Z,6.78
2023-02-17T19:17:08.563Z,6.72
2023-02-17T19:19:42.921Z,6.60
2023-02-17T19:22:16.506Z,6.66
2023-02-17T19:24:52.557Z,6.63
2023-02-17T19:27:25.767Z,6.59
2023-02-17T19:30:00.924Z,6.55
2023-02-17T19:32:34.692Z,6.45
2023-02-17T19:35:11.511Z,6.43
2023-02-17T19:37:45.025Z,6.35
2023-02-17T19:40:18.786Z,6.33
2023-02-17T19:42:52.183Z,6.36
2023-02-17T19:45:27.206Z,6.34
2023-02-17T19:48:00.500Z,6.13
2023-02-17T19:50:34.112Z,6.12
2023-02-17T19:53:07.592Z,6.17
2023-02-17T19:55:41.017Z,6.08
2023-02-17T19:58:14.281Z,5.62
2023-02-17T20:00:49.261Z,5.80
2023-02-17T20:03:22.685Z,5.95
2023-02-17T20:05:55.899Z,6.04
2023-02-17T20:08:29.408Z,5.92
2023-02-17T20:11:07.782Z,5.89
2023-02-17T20:13:46.230Z,5.93
2023-02-17T20:16:22.238Z,5.89
2023-02-17T20:18:56.279Z,5.85
2023-02-17T20:21:32.541Z,5.81
2023-02-17T20:24:06.387Z,5.85
2023-02-17T20:26:40.729Z,5.72
2023-02-17T20:29:15.115Z,5.58
2023-02-17T20:31:50.224Z,5.67
2023-02-17T20:34:29.505Z,5.58
2023-02-17T20:37:03.537Z,5.57
2023-02-17T20:39:39.044Z,5.62
2023-02-17T20:42:12.950Z,5.60
2023-02-17T20:44:48.847Z,5.54
2023-02-17T20:47:23.453Z,5.51
2023-02-17T20:49:56.657Z,5.49
2023-02-17T20:52:29.826Z,5.40
2023-02-17T20:55:03.367Z,5.41
2023-02-17T20:57:37.169Z,5.34
2023-02-17T21:00:23.910Z,5.16
2023-02-17T21:02:58.552Z,5.24
2023-02-17T21:05:32.781Z,5.28
2023-02-17T21:08:06.648Z,5.18
2023-02-17T21:10:40.947Z,5.26
2023-02-17T21:13:14.890Z,5.19
2023-02-17T21:15:48.811Z,5.21
2023-02-17T21:18:23.505Z,5.04
2023-02-17T21:20:56.678Z,5.00
2023-02-17T21:23:30.176Z,4.92
2023-02-17T21:26:03.985Z,5.00
2023-02-17T21:28:37.992Z,4.95
2023-02-17T21:31:11.864Z,4.79
2023-02-17T21:33:46.707Z,4.85
2023-02-17T21:36:20.308Z,4.92
2023-02-17T21:38:53.886Z,4.84
2023-02-17T21:41:29.939Z,4.90
2023-02-17T21:44:20.864Z,4.92
2023-02-17T21:46:54.253Z,4.86
2023-02-17T21:49:29.021Z,4.89
2023-02-17T21:52:02.564Z,4.85
2023-02-17T21:54:35.761Z,4.87
2023-02-17T21:57:09.416Z,4.81
2023-02-17T21:59:44.175Z,4.67
2023-02-17T22:02:17.338Z,4.60
2023-02-17T22:04:55.998Z,4.43
2023-02-17T22:07:29.540Z,4.41
2023-02-17T22:10:03.531Z,4.39
2023-02-17T22:12:37.497Z,4.49
2023-02-17T22:15:11.548Z,4.45
2023-02-17T22:17:45.001Z,4.23
2023-02-17T22:20:20.096Z,4.33
2023-02-17T22:22:53.841Z,4.01
2023-02-17T22:25:27.154Z,4.40
2023-02-17T22:28:00.357Z,4.34
2023-02-17T22:30:33.708Z,4.42
2023-02-17T22:33:06.993Z,4.37
2023-02-17T22:35:42.084Z,4.39
2023-02-17T22:38:16.540Z,4.08
2023-02-17T22:40:50.017Z,4.12
2023-02-17T22:43:23.458Z,4.21
2023-02-17T22:46:00.931Z,4.22
2023-02-17T22:48:35.733Z,4.10
2023-02-17T22:51:12.576Z,4.19
2023-02-17T22:53:46.827Z,4.25
2023-02-17T22:56:20.637Z,3.87
2023-02-17T22:58:56.546Z,3.97
2023-02-17T23:01:31.722Z,4.09
2023-02-17T23:04:06.201Z,3.94
2023-02-17T23:06:41.731Z,3.85
2023-02-17T23:09:18.432Z,4.05
2023-02-17T23:11:54.307Z,4.11
2023-02-17T23:14:32.663Z,4.10
2023-02-17T23:17:09.385Z,3.93
2023-02-17T23:19:43.257Z,3.93
2023-02-17T23:22:19.410Z,3.91
2023-02-17T23:24:52.739Z,3.87
2023-02-17T23:27:25.982Z,4.09
2023-02-17T23:29:59.752Z,4.11
2023-02-17T23:32:33.251Z,3.95
2023-02-17T23:35:07.397Z,3.75
2023-02-17T23:37:42.834Z,3.63
2023-02-17T23:40:16.535Z,3.79
2023-02-17T23:42:49.731Z,3.81
2023-02-17T23:45:23.098Z,3.80
2023-02-17T23:47:56.643Z,3.78
2023-02-17T23:50:29.829Z,3.70
2023-02-17T23:53:05.206Z,3.71
2023-02-17T23:55:38.605Z,3.82
2023-02-17T23:58:11.884Z,3.71
